FABM

Details ICAO FABM
Name Bethlehem
Region South Africa
Timezone Africa/Johannesburg (UTC+2.0)
Plans Departing 4
Arriving 3
Stats Elevation 5,561 ft / 1,695 m (AMSL)
Location -28.247521° 28.335742°
Runways 2
Magnetic Variation 22.037° W
Sunrise 2017-12-15 03:05:29 UTC / 2017-12-15 05:05:29 Local
Sunset 2017-12-15 17:00:51 UTC / 2017-12-15 19:00:51 Local
Advertisement - Login to hide

Runways

ID Width Length Bearing (true) Bearing (mag) Surface Threshold Offset Overrun Length
11 49 ft / 15 m 3,858 ft / 1,176 m 96.00° 118.04° Asphalt 0 ft / 0 m 0 ft / 0 m
13 151 ft / 46 m 4,304 ft / 1,312 m 108.00° 130.04° Grass 0 ft / 0 m 0 ft / 0 m
29 49 ft / 15 m 3,858 ft / 1,176 m 276.00° 298.04° Asphalt 0 ft / 0 m 0 ft / 0 m
31 151 ft / 46 m 4,304 ft / 1,312 m 288.00° 310.04° Grass 0 ft / 0 m 0 ft / 0 m

Map

Weather


0- 5 10 15 20 25 30 35+ Temperature / ° C

Clouds and Precipitation
Forecast for 2017-12-15 12:00 UTC. Updated 2 hours ago

Ground ~20,000 ft ~40,000 ft Winds

METAR

FABM 150753Z 35005KT 9999 FEW020 18/10 Q1028

TAF

Not found

Frequencies

Unicom 124.80 MHz CTAF
Warning: Do not use this data for real-world aviation or navigation. No guarantee of current accuracy is given.